logo
Search for airport 
image banner adimage banner adimage banner ad
image banner ad

FACE - Ceres

Located in Ceres, South Africa

ICAO - FACE, IATA -

Data provided by Airmate  

General information

Coordinates: S33°19'1" E19°25'40"
Elevation is 1519 feet MSL.
 
View others Airports in Western Cape

Operational data

Special qualification required
Current time UTC:
Current local time:
Weather at : - ( 0 km )
METAR: TXKF 181055Z 07003KT 9999 FEW013 SCT025 BKN300 19/18 Q1019
View NOTAMs / SUP AIP / TFR affecting this airport [VIEW]
Communications frequencies: [VIEW]

Runways:

RWY identifierQFULength (ft)Width (ft)SurfaceLDA (ft)
0973°492166SAND
27253°492166SAND

Airport contact information

Address: Ceres South Africa

Satellite view of FACE